Andrews Air Force Base Camp Springs US
ICAO: KADW
IATA: ADW
Category: Large
Scheduled Services: No

Elevation: 280 ft
TransAlt. 18000 ft.

Airport Communications:
POTOMAC APP:119.3
ATIS:113.1
CLNC DEL:127.55
POTOMAC DEP:125.65
GND:121.8
AFRC OPS:143.8
PMSV METRO:34.46
COMD POST:141.55
PTD:139.3
TWR:118.4

KADW Zoom In..

Runways:

(A) RW 01L length 9318 ft width 200 ft
ILS 111.50 / hdg 10

(B) RW 01R length 9756 ft width 150 ft
ILS 110.50 / hdg 10

(C) RW 19L length 9756 ft width 150 ft
ILS 110.50 / hdg 190

(D) RW 19R length 9318 ft width 200 ft
ILS 111.50 / hdg 190

Location; KADW
Day. 21 / Time. 05.56 Zulu
* Altimeter: 30.02
* Temperature: 21° c. 69.8°f.
* Wind from: 100° Speed 06 kn.
Dewpoint: 18° c.
Visibility: 10 Statute Miles.
Clouds: Broken 16000 ft.

KADW 210556Z AUTO 10006KT 10SM BKN160 21/18 A3002 RMK AO2 SLP170 T02140176 10249 20212 58003 $


Wind From 100°
Speed 06 kn.

 
 
jpsmedia.com for Web Design worldairports.se 2018   terms of use